Terminal Aerodrome Forecast
Issued by NWS

Home | Current Version | Previous Version | Text Only | Print | Product List | Glossary On
Versions: 1 2 3 4 5 6 7 8 9 10 11 12 13 14 15 16 17 18 19 20 21 22
000
FTUS45 KSLC 232340
TAF36U
TAF
K36U 232340Z 2400/2424 32010G15KT P6SM SCT060 SCT100
     FM240200 VRB04KT P6SM FEW060 SCT100
     FM242000 23009KT P6SM SCT060 BKN100=

USA.gov is the U.S. government's official web portal to all federal, state and local government web resources and services.